sensor_id;sensor_type;location;lat;lon;timestamp;temperature;humidity
5364;DHT22;2705;41.410;2.160;2022-11-11T00:00:09;16.50;99.90
5364;DHT22;2705;41.410;2.160;2022-11-11T00:02:57;16.60;99.90
5364;DHT22;2705;41.410;2.160;2022-11-11T00:05:45;16.50;99.90
5364;DHT22;2705;41.410;2.160;2022-11-11T00:08:33;16.40;99.90
5364;DHT22;2705;41.410;2.160;2022-11-11T00:11:21;16.30;99.90
5364;DHT22;2705;41.410;2.160;2022-11-11T00:14:08;16.20;99.90
5364;DHT22;2705;41.410;2.160;2022-11-11T00:16:57;16.20;99.90
5364;DHT22;2705;41.410;2.160;2022-11-11T00:20:03;16.10;99.90
5364;DHT22;2705;41.410;2.160;2022-11-11T00:23:19;16.20;99.90
5364;DHT22;2705;41.410;2.160;2022-11-11T00:26:26;16.10;99.90
5364;DHT22;2705;41.410;2.160;2022-11-11T00:29:29;16.10;99.90
5364;DHT22;2705;41.410;2.160;2022-11-11T00:32:18;16.20;99.90
5364;DHT22;2705;41.410;2.160;2022-11-11T00:35:16;16.20;99.90
5364;DHT22;2705;41.410;2.160;2022-11-11T00:38:21;16.20;99.90
5364;DHT22;2705;41.410;2.160;2022-11-11T00:41:26;16.30;99.90
5364;DHT22;2705;41.410;2.160;2022-11-11T00:44:14;16.20;99.90
5364;DHT22;2705;41.410;2.160;2022-11-11T00:47:01;16.20;99.90
5364;DHT22;2705;41.410;2.160;2022-11-11T00:50:11;16.10;99.90
5364;DHT22;2705;41.410;2.160;2022-11-11T00:53:18;16.10;99.90
5364;DHT22;2705;41.410;2.160;2022-11-11T00:56:11;16.00;99.90
5364;DHT22;2705;41.410;2.160;2022-11-11T00:58:59;16.00;99.90
5364;DHT22;2705;41.410;2.160;2022-11-11T01:01:46;16.10;99.90
5364;DHT22;2705;41.410;2.160;2022-11-11T01:04:34;16.10;99.90
5364;DHT22;2705;41.410;2.160;2022-11-11T01:07:24;16.00;99.90
5364;DHT22;2705;41.410;2.160;2022-11-11T01:10:13;15.90;99.90
5364;DHT22;2705;41.410;2.160;2022-11-11T01:13:22;15.90;99.90
5364;DHT22;2705;41.410;2.160;2022-11-11T01:16:12;16.00;99.90
5364;DHT22;2705;41.410;2.160;2022-11-11T01:19:00;15.90;99.90
5364;DHT22;2705;41.410;2.160;2022-11-11T01:21:48;15.90;99.90
5364;DHT22;2705;41.410;2.160;2022-11-11T01:24:37;16.00;99.90
5364;DHT22;2705;41.410;2.160;2022-11-11T01:27:25;15.90;99.90
5364;DHT22;2705;41.410;2.160;2022-11-11T01:30:13;15.90;99.90
5364;DHT22;2705;41.410;2.160;2022-11-11T01:33:01;15.90;99.90
5364;DHT22;2705;41.410;2.160;2022-11-11T01:35:49;15.90;99.90
5364;DHT22;2705;41.410;2.160;2022-11-11T01:38:38;15.90;99.90
5364;DHT22;2705;41.410;2.160;2022-11-11T01:41:31;15.90;99.90
5364;DHT22;2705;41.410;2.160;2022-11-11T01:44:41;15.90;99.90
5364;DHT22;2705;41.410;2.160;2022-11-11T01:47:29;16.00;99.90
5364;DHT22;2705;41.410;2.160;2022-11-11T01:50:59;16.00;99.90
5364;DHT22;2705;41.410;2.160;2022-11-11T01:53:48;15.90;99.90
5364;DHT22;2705;41.410;2.160;2022-11-11T01:56:40;16.00;99.90
5364;DHT22;2705;41.410;2.160;2022-11-11T01:59:30;16.00;99.90
5364;DHT22;2705;41.410;2.160;2022-11-11T02:02:21;16.00;99.90
5364;DHT22;2705;41.410;2.160;2022-11-11T02:05:13;16.00;99.90
5364;DHT22;2705;41.410;2.160;2022-11-11T02:08:21;16.00;99.90
5364;DHT22;2705;41.410;2.160;2022-11-11T02:11:20;16.00;99.90
5364;DHT22;2705;41.410;2.160;2022-11-11T02:14:23;16.10;99.90
5364;DHT22;2705;41.410;2.160;2022-11-11T02:17:27;16.10;99.90
5364;DHT22;2705;41.410;2.160;2022-11-11T02:20:19;16.10;99.90
5364;DHT22;2705;41.410;2.160;2022-11-11T02:23:10;16.10;99.90
5364;DHT22;2705;41.410;2.160;2022-11-11T02:26:02;16.10;99.90
5364;DHT22;2705;41.410;2.160;2022-11-11T02:28:52;16.00;99.90
5364;DHT22;2705;41.410;2.160;2022-11-11T02:31:40;16.00;99.90
5364;DHT22;2705;41.410;2.160;2022-11-11T02:34:29;15.90;99.90
5364;DHT22;2705;41.410;2.160;2022-11-11T02:37:20;15.80;99.90
5364;DHT22;2705;41.410;2.160;2022-11-11T02:40:12;15.80;99.90
5364;DHT22;2705;41.410;2.160;2022-11-11T02:43:02;15.70;99.90
5364;DHT22;2705;41.410;2.160;2022-11-11T02:45:50;15.50;99.90
5364;DHT22;2705;41.410;2.160;2022-11-11T02:48:38;15.50;99.90
5364;DHT22;2705;41.410;2.160;2022-11-11T02:51:26;15.50;99.90
5364;DHT22;2705;41.410;2.160;2022-11-11T02:54:13;15.40;99.90
5364;DHT22;2705;41.410;2.160;2022-11-11T02:57:01;15.40;99.90
5364;DHT22;2705;41.410;2.160;2022-11-11T02:59:58;15.40;99.90
5364;DHT22;2705;41.410;2.160;2022-11-11T03:02:49;15.40;99.90
5364;DHT22;2705;41.410;2.160;2022-11-11T03:05:37;15.40;99.90
5364;DHT22;2705;41.410;2.160;2022-11-11T03:08:24;15.30;99.90
5364;DHT22;2705;41.410;2.160;2022-11-11T03:11:12;15.30;99.90
5364;DHT22;2705;41.410;2.160;2022-11-11T03:14:00;15.30;99.90
5364;DHT22;2705;41.410;2.160;2022-11-11T03:16:50;15.30;99.90
5364;DHT22;2705;41.410;2.160;2022-11-11T03:19:55;15.30;99.90
5364;DHT22;2705;41.410;2.160;2022-11-11T03:23:05;15.30;99.90
5364;DHT22;2705;41.410;2.160;2022-11-11T03:25:53;15.30;99.90
5364;DHT22;2705;41.410;2.160;2022-11-11T03:28:43;15.40;99.90
5364;DHT22;2705;41.410;2.160;2022-11-11T03:31:31;15.40;99.90
5364;DHT22;2705;41.410;2.160;2022-11-11T03:34:20;15.40;99.90
5364;DHT22;2705;41.410;2.160;2022-11-11T03:37:10;15.40;99.90
5364;DHT22;2705;41.410;2.160;2022-11-11T03:40:15;15.40;99.90
5364;DHT22;2705;41.410;2.160;2022-11-11T03:43:03;15.40;99.90
5364;DHT22;2705;41.410;2.160;2022-11-11T03:45:51;15.40;99.90
5364;DHT22;2705;41.410;2.160;2022-11-11T03:48:39;15.40;99.90
5364;DHT22;2705;41.410;2.160;2022-11-11T03:51:28;15.40;99.90
5364;DHT22;2705;41.410;2.160;2022-11-11T03:54:16;15.50;99.90
5364;DHT22;2705;41.410;2.160;2022-11-11T03:57:03;15.50;99.90
5364;DHT22;2705;41.410;2.160;2022-11-11T04:00:10;15.50;99.90
5364;DHT22;2705;41.410;2.160;2022-11-11T04:03:04;15.50;99.90
5364;DHT22;2705;41.410;2.160;2022-11-11T04:06:10;15.50;99.90
5364;DHT22;2705;41.410;2.160;2022-11-11T04:09:17;15.50;99.90
5364;DHT22;2705;41.410;2.160;2022-11-11T04:12:22;15.40;99.90
5364;DHT22;2705;41.410;2.160;2022-11-11T04:15:11;15.40;99.90
5364;DHT22;2705;41.410;2.160;2022-11-11T04:18:16;15.40;99.90
5364;DHT22;2705;41.410;2.160;2022-11-11T04:21:24;15.40;99.90
5364;DHT22;2705;41.410;2.160;2022-11-11T04:24:30;15.40;99.90
5364;DHT22;2705;41.410;2.160;2022-11-11T04:27:36;15.40;99.90
5364;DHT22;2705;41.410;2.160;2022-11-11T04:30:23;15.50;99.90
5364;DHT22;2705;41.410;2.160;2022-11-11T04:33:10;15.50;99.90
5364;DHT22;2705;41.410;2.160;2022-11-11T04:35:57;15.50;99.90
5364;DHT22;2705;41.410;2.160;2022-11-11T04:38:45;15.50;99.90
5364;DHT22;2705;41.410;2.160;2022-11-11T04:41:51;15.50;99.90
5364;DHT22;2705;41.410;2.160;2022-11-11T04:44:53;15.40;99.90
5364;DHT22;2705;41.410;2.160;2022-11-11T04:48:00;15.40;99.90
5364;DHT22;2705;41.410;2.160;2022-11-11T04:50:47;15.30;99.90
5364;DHT22;2705;41.410;2.160;2022-11-11T04:53:35;15.30;99.90
5364;DHT22;2705;41.410;2.160;2022-11-11T04:56:22;15.30;99.90
5364;DHT22;2705;41.410;2.160;2022-11-11T04:59:29;15.40;99.90
5364;DHT22;2705;41.410;2.160;2022-11-11T05:02:17;15.40;99.90
5364;DHT22;2705;41.410;2.160;2022-11-11T05:05:22;15.40;99.90
5364;DHT22;2705;41.410;2.160;2022-11-11T05:08:10;15.40;99.90
5364;DHT22;2705;41.410;2.160;2022-11-11T05:11:15;15.50;99.90
5364;DHT22;2705;41.410;2.160;2022-11-11T05:14:04;15.50;99.90
5364;DHT22;2705;41.410;2.160;2022-11-11T05:17:10;15.50;99.90
5364;DHT22;2705;41.410;2.160;2022-11-11T05:20:16;15.50;99.90
5364;DHT22;2705;41.410;2.160;2022-11-11T05:23:29;15.50;99.90
5364;DHT22;2705;41.410;2.160;2022-11-11T05:26:31;15.50;99.90
5364;DHT22;2705;41.410;2.160;2022-11-11T05:29:18;15.50;99.90
5364;DHT22;2705;41.410;2.160;2022-11-11T05:32:07;15.50;99.90
5364;DHT22;2705;41.410;2.160;2022-11-11T05:34:56;15.50;99.90
5364;DHT22;2705;41.410;2.160;2022-11-11T05:37:43;15.50;99.90
5364;DHT22;2705;41.410;2.160;2022-11-11T05:40:51;15.40;99.90
5364;DHT22;2705;41.410;2.160;2022-11-11T05:43:39;15.40;99.90
5364;DHT22;2705;41.410;2.160;2022-11-11T05:46:27;15.40;99.90
5364;DHT22;2705;41.410;2.160;2022-11-11T05:49:14;15.40;99.90
5364;DHT22;2705;41.410;2.160;2022-11-11T05:52:04;15.50;99.90
5364;DHT22;2705;41.410;2.160;2022-11-11T05:54:52;15.50;99.90
5364;DHT22;2705;41.410;2.160;2022-11-11T05:57:39;15.50;99.90
5364;DHT22;2705;41.410;2.160;2022-11-11T06:00:27;15.50;99.90
5364;DHT22;2705;41.410;2.160;2022-11-11T06:03:15;15.50;99.90
5364;DHT22;2705;41.410;2.160;2022-11-11T06:06:03;15.50;99.90
5364;DHT22;2705;41.410;2.160;2022-11-11T06:08:52;15.50;99.90
5364;DHT22;2705;41.410;2.160;2022-11-11T06:11:39;15.60;99.90
5364;DHT22;2705;41.410;2.160;2022-11-11T06:14:27;15.60;99.90
5364;DHT22;2705;41.410;2.160;2022-11-11T06:17:15;15.60;99.90
5364;DHT22;2705;41.410;2.160;2022-11-11T06:20:03;15.70;99.90
5364;DHT22;2705;41.410;2.160;2022-11-11T06:22:51;15.80;99.90
5364;DHT22;2705;41.410;2.160;2022-11-11T06:25:47;15.70;99.90
5364;DHT22;2705;41.410;2.160;2022-11-11T06:28:53;15.70;99.90
5364;DHT22;2705;41.410;2.160;2022-11-11T06:31:41;15.60;99.90
5364;DHT22;2705;41.410;2.160;2022-11-11T06:34:30;15.60;99.90
5364;DHT22;2705;41.410;2.160;2022-11-11T06:37:17;15.70;99.90
5364;DHT22;2705;41.410;2.160;2022-11-11T06:40:06;15.70;99.90
5364;DHT22;2705;41.410;2.160;2022-11-11T06:42:55;15.70;99.90
5364;DHT22;2705;41.410;2.160;2022-11-11T06:45:44;15.60;99.90
5364;DHT22;2705;41.410;2.160;2022-11-11T06:48:32;15.60;99.90
5364;DHT22;2705;41.410;2.160;2022-11-11T06:51:19;15.60;99.90
5364;DHT22;2705;41.410;2.160;2022-11-11T06:54:07;15.60;99.90
5364;DHT22;2705;41.410;2.160;2022-11-11T06:56:55;15.60;99.90
5364;DHT22;2705;41.410;2.160;2022-11-11T06:59:44;15.50;99.90
5364;DHT22;2705;41.410;2.160;2022-11-11T07:02:31;15.50;99.90
5364;DHT22;2705;41.410;2.160;2022-11-11T07:05:19;15.50;99.90
5364;DHT22;2705;41.410;2.160;2022-11-11T07:08:08;15.50;99.90
5364;DHT22;2705;41.410;2.160;2022-11-11T07:10:57;15.50;99.90
5364;DHT22;2705;41.410;2.160;2022-11-11T07:13:54;15.50;99.90
5364;DHT22;2705;41.410;2.160;2022-11-11T07:16:43;15.60;99.90
5364;DHT22;2705;41.410;2.160;2022-11-11T07:19:31;15.60;99.90
5364;DHT22;2705;41.410;2.160;2022-11-11T07:22:18;15.70;99.90
5364;DHT22;2705;41.410;2.160;2022-11-11T07:25:07;15.80;99.90
5364;DHT22;2705;41.410;2.160;2022-11-11T07:27:54;15.80;99.90
5364;DHT22;2705;41.410;2.160;2022-11-11T07:30:44;15.80;99.90
5364;DHT22;2705;41.410;2.160;2022-11-11T07:33:33;15.80;99.90
5364;DHT22;2705;41.410;2.160;2022-11-11T07:36:21;16.00;99.90
5364;DHT22;2705;41.410;2.160;2022-11-11T07:39:09;16.10;99.90
5364;DHT22;2705;41.410;2.160;2022-11-11T07:41:57;16.20;99.90
5364;DHT22;2705;41.410;2.160;2022-11-11T07:44:46;16.30;99.90
5364;DHT22;2705;41.410;2.160;2022-11-11T07:47:34;16.30;99.90
5364;DHT22;2705;41.410;2.160;2022-11-11T07:50:23;16.30;99.90
5364;DHT22;2705;41.410;2.160;2022-11-11T07:53:11;16.40;99.90
5364;DHT22;2705;41.410;2.160;2022-11-11T07:55:58;16.40;99.90
5364;DHT22;2705;41.410;2.160;2022-11-11T07:58:46;16.50;99.90
5364;DHT22;2705;41.410;2.160;2022-11-11T08:01:34;16.50;99.90
5364;DHT22;2705;41.410;2.160;2022-11-11T08:04:22;16.60;99.90
5364;DHT22;2705;41.410;2.160;2022-11-11T08:07:11;16.70;99.90
5364;DHT22;2705;41.410;2.160;2022-11-11T08:10:05;16.70;99.90
5364;DHT22;2705;41.410;2.160;2022-11-11T08:12:53;16.80;99.90
5364;DHT22;2705;41.410;2.160;2022-11-11T08:15:58;16.80;99.90
5364;DHT22;2705;41.410;2.160;2022-11-11T08:18:47;16.90;99.90
5364;DHT22;2705;41.410;2.160;2022-11-11T08:21:36;17.00;99.90
5364;DHT22;2705;41.410;2.160;2022-11-11T08:24:25;17.00;99.90
5364;DHT22;2705;41.410;2.160;2022-11-11T08:27:32;17.10;99.90
5364;DHT22;2705;41.410;2.160;2022-11-11T08:30:20;17.10;99.90
5364;DHT22;2705;41.410;2.160;2022-11-11T08:33:08;17.10;99.90
5364;DHT22;2705;41.410;2.160;2022-11-11T08:36:15;17.10;99.90
5364;DHT22;2705;41.410;2.160;2022-11-11T08:39:06;17.20;99.90
5364;DHT22;2705;41.410;2.160;2022-11-11T08:41:55;17.20;99.90
5364;DHT22;2705;41.410;2.160;2022-11-11T08:44:43;17.30;99.90
5364;DHT22;2705;41.410;2.160;2022-11-11T08:47:31;17.40;99.90
5364;DHT22;2705;41.410;2.160;2022-11-11T08:50:18;17.50;99.90
5364;DHT22;2705;41.410;2.160;2022-11-11T08:53:07;17.60;99.90
5364;DHT22;2705;41.410;2.160;2022-11-11T08:55:55;17.70;99.90
5364;DHT22;2705;41.410;2.160;2022-11-11T08:58:43;17.80;99.90
5364;DHT22;2705;41.410;2.160;2022-11-11T09:01:31;17.90;99.90
5364;DHT22;2705;41.410;2.160;2022-11-11T09:04:18;18.10;99.90
5364;DHT22;2705;41.410;2.160;2022-11-11T09:07:26;18.10;99.90
5364;DHT22;2705;41.410;2.160;2022-11-11T09:10:14;18.20;99.90
5364;DHT22;2705;41.410;2.160;2022-11-11T09:13:02;18.30;99.90
5364;DHT22;2705;41.410;2.160;2022-11-11T09:15:53;18.40;99.90
5364;DHT22;2705;41.410;2.160;2022-11-11T09:18:41;18.50;99.90
5364;DHT22;2705;41.410;2.160;2022-11-11T09:21:29;18.60;99.90
5364;DHT22;2705;41.410;2.160;2022-11-11T09:24:17;18.70;99.90
5364;DHT22;2705;41.410;2.160;2022-11-11T09:27:04;18.90;99.90
5364;DHT22;2705;41.410;2.160;2022-11-11T09:29:52;19.00;99.90
5364;DHT22;2705;41.410;2.160;2022-11-11T09:32:41;19.10;99.90
5364;DHT22;2705;41.410;2.160;2022-11-11T09:35:29;19.20;99.90
5364;DHT22;2705;41.410;2.160;2022-11-11T09:38:16;19.20;99.90
5364;DHT22;2705;41.410;2.160;2022-11-11T09:41:14;19.30;99.90
5364;DHT22;2705;41.410;2.160;2022-11-11T09:44:03;19.40;99.90
5364;DHT22;2705;41.410;2.160;2022-11-11T09:46:55;19.40;99.90
5364;DHT22;2705;41.410;2.160;2022-11-11T09:49:57;19.40;99.90
5364;DHT22;2705;41.410;2.160;2022-11-11T09:52:48;19.40;99.90
5364;DHT22;2705;41.410;2.160;2022-11-11T09:55:40;19.50;99.90
5364;DHT22;2705;41.410;2.160;2022-11-11T09:58:32;19.40;99.90
5364;DHT22;2705;41.410;2.160;2022-11-11T10:01:24;19.40;99.90
5364;DHT22;2705;41.410;2.160;2022-11-11T10:04:22;19.40;99.90
5364;DHT22;2705;41.410;2.160;2022-11-11T10:07:17;19.30;99.90
5364;DHT22;2705;41.410;2.160;2022-11-11T10:10:16;19.50;99.90
5364;DHT22;2705;41.410;2.160;2022-11-11T10:13:12;19.60;99.90
5364;DHT22;2705;41.410;2.160;2022-11-11T10:16:05;19.70;99.90
5364;DHT22;2705;41.410;2.160;2022-11-11T10:19:05;19.70;99.90
5364;DHT22;2705;41.410;2.160;2022-11-11T10:21:58;19.80;99.90
5364;DHT22;2705;41.410;2.160;2022-11-11T10:25:19;20.00;99.90
5364;DHT22;2705;41.410;2.160;2022-11-11T10:28:14;20.20;99.90
5364;DHT22;2705;41.410;2.160;2022-11-11T10:31:08;20.10;99.90
5364;DHT22;2705;41.410;2.160;2022-11-11T10:34:02;20.10;99.90
5364;DHT22;2705;41.410;2.160;2022-11-11T10:36:53;20.10;99.90
5364;DHT22;2705;41.410;2.160;2022-11-11T10:39:55;20.10;99.90
5364;DHT22;2705;41.410;2.160;2022-11-11T10:42:47;20.20;99.90
5364;DHT22;2705;41.410;2.160;2022-11-11T10:45:40;20.20;99.90
5364;DHT22;2705;41.410;2.160;2022-11-11T10:48:40;20.20;99.90
5364;DHT22;2705;41.410;2.160;2022-11-11T10:51:34;20.30;99.90
5364;DHT22;2705;41.410;2.160;2022-11-11T10:54:28;20.30;99.90
5364;DHT22;2705;41.410;2.160;2022-11-11T10:57:22;20.30;99.90
5364;DHT22;2705;41.410;2.160;2022-11-11T11:00:15;20.30;99.90
5364;DHT22;2705;41.410;2.160;2022-11-11T11:03:10;20.40;99.90
5364;DHT22;2705;41.410;2.160;2022-11-11T11:06:05;20.40;99.90
5364;DHT22;2705;41.410;2.160;2022-11-11T11:08:58;20.40;99.90
5364;DHT22;2705;41.410;2.160;2022-11-11T11:11:51;20.50;99.90
5364;DHT22;2705;41.410;2.160;2022-11-11T11:14:42;20.50;99.90
5364;DHT22;2705;41.410;2.160;2022-11-11T11:17:36;20.50;99.90
5364;DHT22;2705;41.410;2.160;2022-11-11T11:20:26;20.50;99.90
5364;DHT22;2705;41.410;2.160;2022-11-11T11:23:14;20.30;99.90
5364;DHT22;2705;41.410;2.160;2022-11-11T11:26:12;20.40;99.90
5364;DHT22;2705;41.410;2.160;2022-11-11T11:29:00;20.40;99.90
5364;DHT22;2705;41.410;2.160;2022-11-11T11:31:48;20.40;99.90
5364;DHT22;2705;41.410;2.160;2022-11-11T11:34:46;20.50;99.90
5364;DHT22;2705;41.410;2.160;2022-11-11T11:37:48;20.60;99.90
5364;DHT22;2705;41.410;2.160;2022-11-11T11:40:48;20.70;99.90
5364;DHT22;2705;41.410;2.160;2022-11-11T11:43:38;20.70;99.90
5364;DHT22;2705;41.410;2.160;2022-11-11T11:46:30;20.60;99.90
5364;DHT22;2705;41.410;2.160;2022-11-11T11:49:27;20.60;99.90
5364;DHT22;2705;41.410;2.160;2022-11-11T11:52:26;20.50;99.90
5364;DHT22;2705;41.410;2.160;2022-11-11T11:55:20;20.60;99.90
5364;DHT22;2705;41.410;2.160;2022-11-11T11:58:23;20.60;99.90
5364;DHT22;2705;41.410;2.160;2022-11-11T12:01:18;20.70;99.90
5364;DHT22;2705;41.410;2.160;2022-11-11T12:04:29;20.60;99.90
5364;DHT22;2705;41.410;2.160;2022-11-11T12:07:53;20.70;99.90
5364;DHT22;2705;41.410;2.160;2022-11-11T12:10:48;20.60;99.90
5364;DHT22;2705;41.410;2.160;2022-11-11T12:13:45;20.60;99.90
5364;DHT22;2705;41.410;2.160;2022-11-11T12:16:41;20.60;99.90
5364;DHT22;2705;41.410;2.160;2022-11-11T12:19:39;20.50;99.90
5364;DHT22;2705;41.410;2.160;2022-11-11T12:22:46;20.40;99.90
5364;DHT22;2705;41.410;2.160;2022-11-11T12:25:50;20.40;99.90
5364;DHT22;2705;41.410;2.160;2022-11-11T12:28:51;20.50;99.90
5364;DHT22;2705;41.410;2.160;2022-11-11T12:31:52;20.60;99.90
5364;DHT22;2705;41.410;2.160;2022-11-11T12:35:01;20.50;99.90
5364;DHT22;2705;41.410;2.160;2022-11-11T12:38:00;20.60;99.90
5364;DHT22;2705;41.410;2.160;2022-11-11T12:40:57;20.70;99.90
5364;DHT22;2705;41.410;2.160;2022-11-11T12:43:50;20.40;99.90
5364;DHT22;2705;41.410;2.160;2022-11-11T12:46:49;20.30;99.90
5364;DHT22;2705;41.410;2.160;2022-11-11T12:49:45;20.20;99.90
5364;DHT22;2705;41.410;2.160;2022-11-11T12:52:44;20.10;99.90
5364;DHT22;2705;41.410;2.160;2022-11-11T12:55:41;20.20;99.90
5364;DHT22;2705;41.410;2.160;2022-11-11T12:58:37;20.30;99.90
5364;DHT22;2705;41.410;2.160;2022-11-11T13:01:42;20.30;99.90
5364;DHT22;2705;41.410;2.160;2022-11-11T13:04:54;20.30;99.90
5364;DHT22;2705;41.410;2.160;2022-11-11T13:08:09;20.40;99.90
5364;DHT22;2705;41.410;2.160;2022-11-11T13:11:10;20.60;99.90
5364;DHT22;2705;41.410;2.160;2022-11-11T13:14:14;20.70;99.90
5364;DHT22;2705;41.410;2.160;2022-11-11T13:17:10;20.60;99.90
5364;DHT22;2705;41.410;2.160;2022-11-11T13:19:59;20.70;99.90
5364;DHT22;2705;41.410;2.160;2022-11-11T13:22:49;20.60;99.90
5364;DHT22;2705;41.410;2.160;2022-11-11T13:25:43;20.70;99.90
5364;DHT22;2705;41.410;2.160;2022-11-11T13:28:40;20.60;99.90
5364;DHT22;2705;41.410;2.160;2022-11-11T13:31:33;20.60;99.90
5364;DHT22;2705;41.410;2.160;2022-11-11T13:34:24;20.60;99.90
5364;DHT22;2705;41.410;2.160;2022-11-11T13:37:21;20.60;99.90
5364;DHT22;2705;41.410;2.160;2022-11-11T13:40:35;20.70;99.90
5364;DHT22;2705;41.410;2.160;2022-11-11T13:43:26;20.80;99.90
5364;DHT22;2705;41.410;2.160;2022-11-11T13:46:30;20.80;99.90
5364;DHT22;2705;41.410;2.160;2022-11-11T13:49:24;20.80;99.90
5364;DHT22;2705;41.410;2.160;2022-11-11T13:52:20;20.80;99.90
5364;DHT22;2705;41.410;2.160;2022-11-11T13:55:24;20.90;99.90
5364;DHT22;2705;41.410;2.160;2022-11-11T13:58:23;20.90;99.90
5364;DHT22;2705;41.410;2.160;2022-11-11T14:01:11;20.90;99.90
5364;DHT22;2705;41.410;2.160;2022-11-11T14:04:03;21.00;99.90
5364;DHT22;2705;41.410;2.160;2022-11-11T14:06:54;21.00;99.90
5364;DHT22;2705;41.410;2.160;2022-11-11T14:09:58;20.90;99.90
5364;DHT22;2705;41.410;2.160;2022-11-11T14:12:48;20.80;99.90
5364;DHT22;2705;41.410;2.160;2022-11-11T14:15:41;20.90;99.90
5364;DHT22;2705;41.410;2.160;2022-11-11T14:18:46;20.90;99.90
5364;DHT22;2705;41.410;2.160;2022-11-11T14:21:47;20.80;99.90
5364;DHT22;2705;41.410;2.160;2022-11-11T14:24:43;20.80;99.90
5364;DHT22;2705;41.410;2.160;2022-11-11T14:27:32;20.80;99.90
5364;DHT22;2705;41.410;2.160;2022-11-11T14:30:30;20.70;99.90
5364;DHT22;2705;41.410;2.160;2022-11-11T14:33:27;20.80;99.90
5364;DHT22;2705;41.410;2.160;2022-11-11T14:36:20;20.90;99.90
5364;DHT22;2705;41.410;2.160;2022-11-11T14:39:18;20.80;99.90
5364;DHT22;2705;41.410;2.160;2022-11-11T14:42:42;20.80;99.90
5364;DHT22;2705;41.410;2.160;2022-11-11T14:46:01;20.70;99.90
5364;DHT22;2705;41.410;2.160;2022-11-11T14:49:02;20.70;99.90
5364;DHT22;2705;41.410;2.160;2022-11-11T14:51:51;20.70;99.90
5364;DHT22;2705;41.410;2.160;2022-11-11T14:54:52;20.70;99.90
5364;DHT22;2705;41.410;2.160;2022-11-11T14:57:45;20.70;99.90
5364;DHT22;2705;41.410;2.160;2022-11-11T15:00:43;20.70;99.90
5364;DHT22;2705;41.410;2.160;2022-11-11T15:03:36;20.70;99.90
5364;DHT22;2705;41.410;2.160;2022-11-11T15:06:30;20.70;99.90
5364;DHT22;2705;41.410;2.160;2022-11-11T15:09:35;20.70;99.90
5364;DHT22;2705;41.410;2.160;2022-11-11T15:12:36;20.70;99.90
5364;DHT22;2705;41.410;2.160;2022-11-11T15:15:28;20.70;99.90
5364;DHT22;2705;41.410;2.160;2022-11-11T15:18:34;21.00;99.90
5364;DHT22;2705;41.410;2.160;2022-11-11T15:21:32;21.20;99.90
5364;DHT22;2705;41.410;2.160;2022-11-11T15:24:30;21.30;99.90
5364;DHT22;2705;41.410;2.160;2022-11-11T15:27:30;21.20;99.90
5364;DHT22;2705;41.410;2.160;2022-11-11T15:30:21;21.00;99.90
5364;DHT22;2705;41.410;2.160;2022-11-11T15:33:14;20.80;99.90
5364;DHT22;2705;41.410;2.160;2022-11-11T15:36:12;20.70;99.90
5364;DHT22;2705;41.410;2.160;2022-11-11T15:39:05;20.50;99.90
5364;DHT22;2705;41.410;2.160;2022-11-11T15:41:57;20.50;99.90
5364;DHT22;2705;41.410;2.160;2022-11-11T15:44:46;20.40;99.90
5364;DHT22;2705;41.410;2.160;2022-11-11T15:47:35;20.30;99.90
5364;DHT22;2705;41.410;2.160;2022-11-11T15:50:33;20.30;99.90
5364;DHT22;2705;41.410;2.160;2022-11-11T15:53:23;20.30;99.90
5364;DHT22;2705;41.410;2.160;2022-11-11T15:56:26;20.30;99.90
5364;DHT22;2705;41.410;2.160;2022-11-11T15:59:17;20.30;99.90
